Terminal Aerodrome Forecast
Issued by NWS

Home | Current Version | Previous Version | Graphics & Text | Print | Product List | Glossary On
Versions: 1 2 3 4 5 6 7 8 9 10 11 12 13 14 15 16 17 18
188
FTUS43 KBIS 222339
TAFJMS
TAF
KJMS 222339Z 2300/2324 03015KT P6SM BKN070
     FM230300 04013G21KT P6SM BKN050 OVC080
     FM230500 04013G21KT P6SM VCSH BKN015 OVC080
     FM230800 05013G21KT P6SM VCSH OVC020
     FM231000 05014G20KT 5SM -RASN OVC015
      TEMPO 2311/2315 3SM -SN OVC008
     FM231700 07015G24KT P6SM VCSH OVC015=

USA.gov is the U.S. government's official web portal to all federal, state and local government web resources and services.